createdAt,value
2023-05-08T00:04:39.123Z,64.21
2023-05-08T00:09:40.491Z,64.12
2023-05-08T00:14:41.829Z,63.94
2023-05-08T00:19:43.152Z,64.40
2023-05-08T00:24:44.611Z,63.86
2023-05-08T00:29:45.914Z,63.69
2023-05-08T00:34:47.304Z,64.13
2023-05-08T00:39:48.603Z,63.47
2023-05-08T00:44:49.935Z,63.68
2023-05-08T00:49:51.302Z,63.97
2023-05-08T00:54:53.514Z,63.74
2023-05-08T00:59:55.603Z,63.66
2023-05-08T01:04:57.327Z,63.45
2023-05-08T01:09:58.714Z,63.74
2023-05-08T01:15:14.386Z,63.72
2023-05-08T01:20:43.711Z,63.85
2023-05-08T01:26:06.314Z,64.05
2023-05-08T01:31:29.236Z,63.67
2023-05-08T01:36:45.370Z,63.91
2023-05-08T01:41:58.864Z,63.58
2023-05-08T01:47:06.425Z,63.36
2023-05-08T01:52:14.688Z,63.15
2023-05-08T01:57:18.524Z,63.17
2023-05-08T02:02:20.914Z,63.51
2023-05-08T02:07:23.820Z,63.18
2023-05-08T02:12:26.790Z,62.89
2023-05-08T02:17:30.785Z,63.49
2023-05-08T02:22:33.576Z,63.85
2023-05-08T02:27:36.402Z,63.71
2023-05-08T02:32:39.257Z,63.47
2023-05-08T02:37:46.580Z,63.86
2023-05-08T02:42:48.830Z,63.48
2023-05-08T02:48:04.176Z,63.53
2023-05-08T02:53:11.194Z,63.34
2023-05-08T02:58:18.611Z,63.31
2023-05-08T03:03:25.097Z,63.03
2023-05-08T03:08:30.672Z,63.04
2023-05-08T03:13:35.845Z,63.36
2023-05-08T03:18:44.915Z,63.33
2023-05-08T03:23:48.353Z,63.42
2023-05-08T03:28:51.085Z,63.63
2023-05-08T03:33:54.429Z,64.01
2023-05-08T03:38:56.686Z,63.80
2023-05-08T03:43:58.897Z,63.70
2023-05-08T03:49:03.259Z,64.23
2023-05-08T03:54:04.682Z,64.47
2023-05-08T03:59:29.082Z,64.71
2023-05-08T04:04:38.041Z,64.85
2023-05-08T04:09:57.989Z,65.11
2023-05-08T04:15:05.970Z,65.37
2023-05-08T04:20:12.161Z,65.77
2023-05-08T04:25:16.458Z,66.81
2023-05-08T04:30:18.185Z,67.61
2023-05-08T04:35:19.792Z,67.50
2023-05-08T04:40:21.167Z,67.70
2023-05-08T04:45:22.649Z,67.61
2023-05-08T04:50:24.170Z,67.72
2023-05-08T04:55:25.627Z,67.76
2023-05-08T05:00:27.169Z,67.76
2023-05-08T05:05:28.693Z,67.85
2023-05-08T05:10:30.114Z,67.71
2023-05-08T05:15:31.491Z,67.27
2023-05-08T05:20:32.817Z,67.28
2023-05-08T05:25:34.759Z,67.49
2023-05-08T05:30:36.211Z,67.82
2023-05-08T05:35:37.600Z,67.63
2023-05-08T05:40:38.964Z,67.79
2023-05-08T05:45:40.516Z,68.09
2023-05-08T05:50:41.810Z,68.90
2023-05-08T05:55:43.105Z,69.16
2023-05-08T06:00:44.704Z,68.80
2023-05-08T06:05:47.102Z,69.15
2023-05-08T06:10:48.518Z,68.90
2023-05-08T06:15:50.500Z,68.84
2023-05-08T06:20:57.407Z,69.12
2023-05-08T06:25:58.918Z,69.72
2023-05-08T06:31:00.275Z,69.71
2023-05-08T06:36:01.638Z,70.10
2023-05-08T06:41:02.935Z,70.39
2023-05-08T06:46:04.865Z,70.80
2023-05-08T06:51:06.699Z,71.60
2023-05-08T06:56:08.115Z,71.73
2023-05-08T07:01:09.432Z,71.89
2023-05-08T07:06:10.813Z,71.89
2023-05-08T07:11:12.444Z,72.03
2023-05-08T07:16:14.611Z,72.17
2023-05-08T07:21:17.955Z,72.17
2023-05-08T07:26:19.271Z,71.82
2023-05-08T07:31:21.369Z,72.04
2023-05-08T07:36:22.753Z,71.75
2023-05-08T07:41:24.316Z,71.76
2023-05-08T07:46:25.800Z,71.43
2023-05-08T07:51:27.603Z,71.54
2023-05-08T07:56:28.985Z,71.73
2023-05-08T08:01:30.301Z,71.70
2023-05-08T08:06:31.694Z,71.68
2023-05-08T08:11:33.195Z,71.04
2023-05-08T08:16:34.610Z,71.16
2023-05-08T08:21:36.183Z,70.52
2023-05-08T08:26:37.636Z,70.50
2023-05-08T08:31:39.123Z,70.47
2023-05-08T08:36:40.573Z,70.34
2023-05-08T08:41:42.003Z,70.14
2023-05-08T08:46:53.556Z,70.60
2023-05-08T08:52:17.912Z,70.37
2023-05-08T08:57:20.252Z,70.56
2023-05-08T09:02:23.509Z,70.52
2023-05-08T09:07:25.932Z,69.76
2023-05-08T09:12:27.377Z,68.96
2023-05-08T09:17:28.904Z,69.47
2023-05-08T09:22:30.557Z,69.29
2023-05-08T09:27:32.379Z,69.82
2023-05-08T09:32:35.932Z,69.86
2023-05-08T09:37:42.920Z,70.02
2023-05-08T09:42:45.084Z,70.79
2023-05-08T09:47:49.578Z,71.39
2023-05-08T09:52:51.148Z,70.99
2023-05-08T09:57:58.021Z,71.40
2023-05-08T10:03:01.490Z,71.43
2023-05-08T10:08:22.524Z,71.40
2023-05-08T10:13:24.065Z,71.55
2023-05-08T10:18:30.021Z,71.56
2023-05-08T10:23:34.141Z,71.22
2023-05-08T10:28:49.697Z,71.62
2023-05-08T10:33:55.850Z,70.88
2023-05-08T10:38:58.696Z,68.02
2023-05-08T10:44:03.033Z,67.75
2023-05-08T10:49:14.834Z,67.35
2023-05-08T10:54:21.699Z,66.69
2023-05-08T10:59:23.728Z,67.01
2023-05-08T11:04:25.504Z,66.37
2023-05-08T11:09:28.972Z,66.54
2023-05-08T11:14:31.732Z,66.45
2023-05-08T11:19:33.309Z,65.47
2023-05-08T11:24:36.556Z,65.10
2023-05-08T11:29:38.821Z,65.79
2023-05-08T11:34:43.605Z,65.56
2023-05-08T11:39:45.910Z,65.21
2023-05-08T11:44:47.569Z,65.06
2023-05-08T11:49:49.044Z,65.42
2023-05-08T11:54:50.532Z,64.93
2023-05-08T11:59:52.041Z,64.53
2023-05-08T12:04:54.487Z,64.77
2023-05-08T12:09:55.911Z,64.45
2023-05-08T12:14:57.315Z,64.28
2023-05-08T12:20:16.700Z,64.39
2023-05-08T12:25:18.677Z,63.25
2023-05-08T12:30:20.255Z,62.59
2023-05-08T12:35:21.930Z,62.74
2023-05-08T12:40:29.822Z,61.93
2023-05-08T12:45:33.745Z,60.21
2023-05-08T12:50:37.388Z,60.19
2023-05-08T12:55:39.320Z,59.79
2023-05-08T13:00:51.889Z,60.00
2023-05-08T13:05:57.995Z,58.83
2023-05-08T13:11:00.290Z,58.71
2023-05-08T13:16:04.425Z,58.80
2023-05-08T13:21:05.888Z,59.74
2023-05-08T13:26:07.168Z,58.41
2023-05-08T13:31:08.498Z,58.43
2023-05-08T13:36:09.887Z,58.45
2023-05-08T13:41:11.334Z,58.62
2023-05-08T13:46:12.764Z,58.81
2023-05-08T13:51:14.478Z,59.04
2023-05-08T13:56:15.832Z,59.68
2023-05-08T14:01:25.947Z,59.63
2023-05-08T14:06:28.072Z,59.77
2023-05-08T14:11:29.590Z,59.47
2023-05-08T14:16:31.164Z,58.63
2023-05-08T14:21:32.730Z,58.10
2023-05-08T14:26:34.119Z,59.13
2023-05-08T14:31:35.824Z,58.98
2023-05-08T14:36:37.235Z,58.51
2023-05-08T14:41:40.821Z,59.17
2023-05-08T14:46:42.154Z,58.16
2023-05-08T14:51:43.711Z,58.21
2023-05-08T15:02:07.084Z,58.56
2023-05-08T15:07:08.391Z,59.43
2023-05-08T15:12:09.746Z,59.67
2023-05-08T15:17:11.126Z,59.19
2023-05-08T15:22:13.767Z,59.64
2023-05-08T15:27:15.286Z,59.71
2023-05-08T15:32:16.641Z,59.14
2023-05-08T15:37:18.027Z,59.78
2023-05-08T15:42:20.924Z,60.08
2023-05-08T15:47:23.174Z,60.52
2023-05-08T15:52:24.757Z,61.30
2023-05-08T15:57:27.001Z,61.77
2023-05-08T16:02:28.531Z,62.83
2023-05-08T16:07:30.006Z,62.77
2023-05-08T16:12:31.365Z,63.20
2023-05-08T16:17:33.109Z,63.34
2023-05-08T16:22:34.427Z,63.58
2023-05-08T16:27:36.809Z,64.38
2023-05-08T16:32:39.705Z,64.70
2023-05-08T16:37:41.173Z,64.52
2023-05-08T16:42:42.555Z,65.01
2023-05-08T16:47:43.896Z,65.25
2023-05-08T16:52:45.376Z,65.43
2023-05-08T16:57:46.684Z,65.38
2023-05-08T17:02:48.374Z,65.70
2023-05-08T17:07:50.052Z,65.75
2023-05-08T17:12:54.063Z,65.74
2023-05-08T17:17:55.923Z,65.72
2023-05-08T17:22:57.347Z,65.24
2023-05-08T17:28:00.664Z,65.46
2023-05-08T17:33:03.511Z,64.88
2023-05-08T17:38:04.834Z,65.42
2023-05-08T17:43:08.473Z,65.40
2023-05-08T17:48:09.867Z,65.21
2023-05-08T17:53:11.171Z,65.30
2023-05-08T17:58:12.476Z,65.37
2023-05-08T18:03:13.866Z,65.19
2023-05-08T18:08:15.289Z,64.71
2023-05-08T18:13:16.599Z,64.90
2023-05-08T18:18:17.924Z,64.88
2023-05-08T18:23:19.366Z,65.27
2023-05-08T18:28:20.856Z,65.71
2023-05-08T18:33:22.284Z,65.99
2023-05-08T18:38:23.837Z,65.96
2023-05-08T18:43:25.197Z,66.15
2023-05-08T18:48:27.129Z,66.54
2023-05-08T18:53:30.403Z,66.62
2023-05-08T18:58:31.733Z,67.23
2023-05-08T19:03:33.081Z,67.07
2023-05-08T19:08:34.405Z,67.14
2023-05-08T19:13:35.845Z,67.20
2023-05-08T19:18:37.142Z,67.32
2023-05-08T19:23:38.477Z,67.05
2023-05-08T19:28:39.718Z,67.14
2023-05-08T19:33:41.241Z,67.21
2023-05-08T19:38:42.559Z,67.48
2023-05-08T19:43:43.858Z,67.29
2023-05-08T19:48:45.209Z,68.04
2023-05-08T19:53:46.638Z,68.07
2023-05-08T19:58:47.927Z,68.26
2023-05-08T20:03:49.337Z,68.35
2023-05-08T20:08:50.807Z,68.78
2023-05-08T20:13:52.105Z,68.94
2023-05-08T20:18:53.834Z,69.36
2023-05-08T20:23:55.170Z,69.41
2023-05-08T20:28:57.255Z,69.77
2023-05-08T20:33:59.586Z,70.05
2023-05-08T20:39:01.086Z,70.19
2023-05-08T20:44:02.441Z,70.23
2023-05-08T20:49:04.282Z,70.70
2023-05-08T20:54:05.845Z,70.71
2023-05-08T20:59:07.399Z,71.16
2023-05-08T21:04:08.971Z,70.99
2023-05-08T21:09:10.690Z,71.46
2023-05-08T21:14:12.004Z,71.57
2023-05-08T21:19:17.422Z,71.63
2023-05-08T21:24:18.797Z,71.79
2023-05-08T21:29:20.214Z,72.23
2023-05-08T21:34:22.681Z,72.25
2023-05-08T21:39:24.009Z,72.49
2023-05-08T21:44:25.448Z,72.47
2023-05-08T21:49:26.758Z,72.51
2023-05-08T21:54:28.178Z,72.83
2023-05-08T21:59:29.468Z,72.89
2023-05-08T22:04:30.797Z,72.80
2023-05-08T22:09:32.183Z,73.11
2023-05-08T22:14:33.617Z,73.33
2023-05-08T22:19:35.033Z,73.48
2023-05-08T22:24:36.385Z,73.42
2023-05-08T22:29:37.709Z,73.55
2023-05-08T22:34:39.095Z,73.75
2023-05-08T22:39:40.483Z,73.96
2023-05-08T22:44:43.250Z,73.88
2023-05-08T22:49:45.075Z,73.98
2023-05-08T22:54:46.408Z,74.30
2023-05-08T22:59:47.705Z,74.23
2023-05-08T23:04:49.261Z,74.69
2023-05-08T23:09:50.727Z,74.50
2023-05-08T23:14:52.028Z,74.55
2023-05-08T23:19:53.398Z,74.54
2023-05-08T23:24:54.893Z,74.61
2023-05-08T23:29:56.525Z,74.87
2023-05-08T23:34:57.807Z,74.98
2023-05-08T23:39:59.198Z,75.17
2023-05-08T23:45:00.519Z,75.32
2023-05-08T23:50:02.058Z,75.30
2023-05-08T23:55:03.704Z,74.99
